Time;durP1;ratioP1;P1;durP2;ratioP2;P2;SDS_P1;SDS_P2;PMS_P1;PMS_P2;Temp;Humidity;BMP_temperature;BMP_pressure;BME280_temperature;BME280_humidity;BME280_pressure;Samples;Min_cycle;Max_cycle;Signal;HPM_P1;HPM_P2
2022/11/01 00:01:29;;;;;;;29.53;22.60;;;13.00;43.90;;;;;;5007638;28;20464;-62
2022/11/01 00:03:56;;;;;;;28.27;22.63;;;12.90;43.90;;;;;;5005617;28;20460;-62
2022/11/01 00:06:24;;;;;;;28.63;23.20;;;12.90;43.70;;;;;;5009090;28;20531;-62
2022/11/01 00:08:50;;;;;;;30.63;23.00;;;12.90;43.70;;;;;;5005989;28;20479;-62
2022/11/01 00:11:18;;;;;;;31.07;22.37;;;12.90;43.40;;;;;;5011169;28;20460;-62
2022/11/01 00:13:46;;;;;;;26.40;21.47;;;12.80;43.40;;;;;;5009630;28;20460;-62
2022/11/01 00:16:13;;;;;;;29.73;23.60;;;12.80;43.30;;;;;;5009023;28;20463;-63
2022/11/01 00:18:41;;;;;;;29.13;23.40;;;12.80;43.20;;;;;;5004594;28;21101;-62
2022/11/01 00:21:08;;;;;;;28.07;22.50;;;12.80;43.10;;;;;;5010960;28;20455;-62
2022/11/01 00:23:36;;;;;;;28.20;20.90;;;12.80;43.10;;;;;;5009217;28;20865;-62
2022/11/01 00:26:03;;;;;;;31.67;24.60;;;12.80;42.80;;;;;;5008419;28;20490;-62
2022/11/01 00:28:31;;;;;;;29.50;22.23;;;12.80;43.00;;;;;;5007146;28;20479;-62
2022/11/01 00:30:58;;;;;;;27.57;21.93;;;12.80;42.90;;;;;;5008344;28;20471;-62
2022/11/01 00:33:26;;;;;;;27.70;22.30;;;12.80;42.80;;;;;;5007314;28;20979;-62
2022/11/01 00:35:54;;;;;;;30.20;21.43;;;12.80;43.00;;;;;;5010779;28;20467;-62
2022/11/01 00:38:20;;;;;;;23.77;19.63;;;12.80;42.70;;;;;;5008616;28;20483;-62
2022/11/01 00:40:47;;;;;;;28.03;20.93;;;12.90;42.30;;;;;;5008364;28;20462;-62
2022/11/01 00:43:14;;;;;;;24.07;20.20;;;12.90;41.50;;;;;;5008759;28;20459;-62
2022/11/01 00:45:44;;;;;;;35.67;22.73;;;12.90;41.40;;;;;;5009482;28;20490;-62
2022/11/01 00:48:11;;;;;;;26.00;21.07;;;12.80;41.50;;;;;;5009133;28;20498;-62
2022/11/01 00:50:38;;;;;;;25.90;19.83;;;12.90;41.40;;;;;;5009778;28;20464;-62
2022/11/01 00:53:06;;;;;;;29.73;21.03;;;12.90;41.00;;;;;;5008146;28;20459;-62
2022/11/01 00:55:33;;;;;;;29.73;22.20;;;12.80;41.10;;;;;;5007461;28;20464;-62
2022/11/01 00:58:00;;;;;;;29.17;22.17;;;12.70;41.30;;;;;;5007552;28;20472;-62
2022/11/01 01:00:27;;;;;;;33.30;24.30;;;12.70;41.50;;;;;;5007957;28;20465;-62
2022/11/01 01:02:54;;;;;;;32.90;24.37;;;12.60;41.50;;;;;;5007788;28;20464;-62
2022/11/01 01:05:20;;;;;;;27.83;21.23;;;12.60;41.50;;;;;;5005416;28;20479;-62
2022/11/01 01:07:47;;;;;;;26.13;20.63;;;12.60;41.70;;;;;;5006185;28;20488;-62
2022/11/01 01:10:15;;;;;;;33.57;24.33;;;12.60;41.70;;;;;;5008630;28;20460;-62
2022/11/01 01:12:42;;;;;;;30.67;22.90;;;12.60;41.80;;;;;;5007988;28;20490;-62
2022/11/01 01:15:10;;;;;;;27.27;22.60;;;12.60;41.70;;;;;;5004864;28;20472;-62
2022/11/01 01:17:36;;;;;;;31.43;22.90;;;12.50;41.90;;;;;;5009924;28;20486;-63
2022/11/01 01:20:04;;;;;;;32.73;22.00;;;12.50;42.00;;;;;;5009400;28;20547;-62
2022/11/01 01:22:31;;;;;;;28.20;21.37;;;12.50;42.00;;;;;;5008133;28;20509;-62
2022/11/01 01:24:58;;;;;;;27.03;22.33;;;12.50;42.00;;;;;;5007353;28;20467;-62
2022/11/01 01:27:26;;;;;;;27.53;19.53;;;12.60;42.00;;;;;;5009292;28;20475;-62
2022/11/01 01:29:53;;;;;;;25.47;19.77;;;12.50;42.00;;;;;;5009445;28;20503;-62
2022/11/01 01:32:21;;;;;;;28.93;19.77;;;12.60;41.90;;;;;;5007611;28;20498;-62
2022/11/01 01:34:49;;;;;;;27.20;19.60;;;12.50;42.20;;;;;;5003597;28;20544;-62
2022/11/01 01:37:16;;;;;;;31.63;20.23;;;12.50;42.20;;;;;;5007339;28;21051;-62
2022/11/01 01:39:43;;;;;;;27.60;20.33;;;12.50;42.20;;;;;;5008001;28;20460;-62
2022/11/01 01:42:17;;;;;;;30.00;21.80;;;12.50;42.20;;;;;;5009445;28;20455;-62
2022/11/01 01:45:21;;;;;;;25.50;19.67;;;12.50;42.40;;;;;;5005185;28;20521;-62
2022/11/01 01:47:51;;;;;;;30.83;19.87;;;12.50;42.40;;;;;;5001369;28;20492;-62
2022/11/01 01:50:25;;;;;;;25.67;18.80;;;12.50;42.00;;;;;;5007863;28;20855;-62
2022/11/01 01:52:56;;;;;;;25.40;19.20;;;12.50;42.20;;;;;;5009654;28;20972;-62
2022/11/01 01:55:26;;;;;;;27.80;19.33;;;12.50;41.70;;;;;;5007229;28;20460;-62
2022/11/01 01:57:55;;;;;;;31.50;20.03;;;12.50;41.60;;;;;;5004793;28;20480;-62
2022/11/01 02:00:23;;;;;;;37.60;23.50;;;12.50;41.80;;;;;;5007021;28;20478;-62
2022/11/01 02:02:50;;;;;;;25.80;19.73;;;12.50;41.60;;;;;;5006100;28;20459;-62
2022/11/01 02:05:26;;;;;;;29.30;21.07;;;12.50;41.60;;;;;;5006165;28;20482;-62
2022/11/01 02:07:54;;;;;;;29.13;21.53;;;12.50;41.80;;;;;;5008732;28;20475;-62
2022/11/01 02:10:21;;;;;;;30.93;21.27;;;12.50;41.80;;;;;;5006973;28;20472;-61
2022/11/01 02:12:49;;;;;;;25.93;19.90;;;12.60;41.90;;;;;;5002437;28;20472;-62
2022/11/01 02:15:18;;;;;;;30.10;19.53;;;12.60;41.90;;;;;;5006018;28;20459;-61
2022/11/01 02:18:12;;;;;;;29.10;21.20;;;12.60;41.60;;;;;;5007470;28;20484;-62
2022/11/01 02:21:29;;;;;;;26.70;19.93;;;12.50;41.80;;;;;;5005612;28;20478;-62
2022/11/01 02:24:16;;;;;;;28.33;21.03;;;12.50;41.70;;;;;;5002568;28;20471;-61
2022/11/01 02:27:11;;;;;;;29.23;21.10;;;12.50;41.50;;;;;;5006889;28;20832;-66
2022/11/01 02:30:10;;;;;;;333.27;226.43;;;12.40;41.70;;;;;;5004083;28;20499;-59
2022/11/01 02:33:22;;;;;;;548.33;400.60;;;12.50;42.00;;;;;;5002416;28;20659;-61
2022/11/01 02:35:57;;;;;;;28.17;20.23;;;12.60;41.70;;;;;;4999692;28;20470;-60
2022/11/01 02:38:29;;;;;;;23.97;16.93;;;12.60;40.80;;;;;;5006531;28;20506;-60
2022/11/01 02:41:03;;;;;;;24.93;17.50;;;12.60;40.20;;;;;;5005446;28;20832;-61
2022/11/01 02:43:37;;;;;;;25.30;17.13;;;12.60;40.40;;;;;;5002880;28;20466;-61
2022/11/01 02:48:50;;;;;;;28.40;18.93;;;12.50;40.80;;;;;;5006838;28;20534;-61
2022/11/01 02:51:19;;;;;;;24.30;18.53;;;12.50;40.80;;;;;;5001674;28;20957;-61
2022/11/01 02:53:46;;;;;;;24.87;16.67;;;12.40;41.00;;;;;;5003486;28;20987;-61
2022/11/01 02:56:14;;;;;;;27.27;18.80;;;12.40;41.30;;;;;;5006662;28;20983;-61
2022/11/01 02:58:41;;;;;;;23.10;16.90;;;12.50;41.40;;;;;;5006138;28;20472;-61
2022/11/01 03:01:14;;;;;;;25.53;16.80;;;12.50;41.20;;;;;;5005682;28;20464;-61
2022/11/01 03:03:45;;;;;;;22.93;16.23;;;12.50;41.10;;;;;;5004900;28;20488;-61
2022/11/01 03:06:21;;;;;;;23.67;17.87;;;12.50;41.20;;;;;;5002312;28;20459;-61
2022/11/01 03:08:51;;;;;;;26.80;17.60;;;12.50;41.40;;;;;;5003465;28;20482;-61
2022/11/01 03:11:21;;;;;;;28.57;18.43;;;12.50;41.30;;;;;;4997650;28;20824;-61
2022/11/01 03:14:00;;;;;;;24.93;19.83;;;12.40;41.10;;;;;;5002976;28;20475;-62
2022/11/01 03:16:34;;;;;;;32.17;23.30;;;12.40;41.40;;;;;;5004958;28;20472;-61
2022/11/01 03:19:14;;;;;;;25.70;17.73;;;12.40;41.20;;;;;;5001146;28;21003;-61
2022/11/01 03:21:48;;;;;;;24.33;18.10;;;12.40;41.10;;;;;;5007342;28;21027;-60
2022/11/01 03:24:24;;;;;;;28.87;20.60;;;12.40;41.00;;;;;;5005386;28;20463;-60
2022/11/01 03:26:58;;;;;;;24.00;17.67;;;12.30;41.00;;;;;;5002540;28;20455;-60
2022/11/01 03:29:29;;;;;;;22.63;17.00;;;12.30;41.00;;;;;;5005547;28;20484;-60
2022/11/01 03:31:58;;;;;;;26.43;17.23;;;12.30;40.80;;;;;;5009079;28;20476;-60
2022/11/01 03:34:25;;;;;;;24.87;17.60;;;12.40;40.70;;;;;;5008431;28;20960;-60
2022/11/01 03:36:57;;;;;;;19.90;15.27;;;12.40;40.60;;;;;;5009532;28;20562;-61
2022/11/01 03:39:28;;;;;;;22.50;15.13;;;12.30;40.70;;;;;;5009723;28;20456;-60
2022/11/01 03:42:00;;;;;;;24.80;15.20;;;12.40;40.30;;;;;;5006268;28;20964;-61
2022/11/01 03:44:32;;;;;;;23.10;15.43;;;12.40;40.00;;;;;;5008973;28;20490;-60
2022/11/01 03:46:59;;;;;;;25.40;16.67;;;12.40;39.80;;;;;;5009473;28;20482;-60
2022/11/01 03:49:26;;;;;;;23.33;15.53;;;12.30;39.60;;;;;;5004874;28;20484;-61
2022/11/01 03:51:54;;;;;;;22.93;15.20;;;12.30;39.70;;;;;;5011901;28;20467;-60
2022/11/01 03:54:21;;;;;;;22.80;14.97;;;12.30;39.60;;;;;;5004196;28;20543;-60
2022/11/01 03:56:48;;;;;;;23.57;15.37;;;12.40;39.20;;;;;;5012606;28;20466;-60
2022/11/01 03:59:15;;;;;;;22.03;15.30;;;12.30;38.90;;;;;;5002889;28;20451;-61
2022/11/01 04:01:41;;;;;;;26.63;16.13;;;12.30;39.10;;;;;;4982864;28;20496;-61
2022/11/01 04:04:08;;;;;;;20.87;15.37;;;12.30;39.20;;;;;;4967635;28;20468;-61
2022/11/01 04:06:35;;;;;;;20.03;15.17;;;12.30;38.90;;;;;;4970057;28;20483;-61
2022/11/01 04:09:03;;;;;;;22.60;15.67;;;12.30;39.00;;;;;;4969846;28;20495;-61
2022/11/01 04:11:30;;;;;;;21.03;14.47;;;12.30;39.20;;;;;;5005709;28;20476;-60
2022/11/01 04:20:31;;;;;;;20.43;14.70;;;12.20;39.30;;;;;;5009635;28;20456;-61
2022/11/01 04:22:12;;;;;;;23.13;16.60;;;12.20;39.60;;;;;;5006351;28;20455;-61
2022/11/01 04:24:40;;;;;;;28.87;17.23;;;12.20;39.80;;;;;;5008877;28;20507;-61
2022/11/01 04:27:07;;;;;;;29.90;17.67;;;12.20;40.00;;;;;;5010070;28;20482;-61
2022/11/01 04:29:33;;;;;;;27.50;18.70;;;12.20;40.20;;;;;;5008499;28;20476;-60
2022/11/01 04:32:01;;;;;;;31.63;17.40;;;12.20;40.20;;;;;;5010235;28;21177;-60
2022/11/01 04:34:43;;;;;;;27.17;18.20;;;12.20;40.40;;;;;;5009935;28;20459;-61
2022/11/01 04:37:11;;;;;;;27.20;18.73;;;12.20;40.40;;;;;;5006586;28;20546;-61
2022/11/01 04:39:39;;;;;;;24.90;18.27;;;12.20;40.40;;;;;;5009655;28;20452;-60
2022/11/01 04:42:06;;;;;;;22.07;15.73;;;12.20;40.30;;;;;;5005759;28;20466;-60
2022/11/01 04:44:33;;;;;;;24.37;17.40;;;12.30;40.30;;;;;;5007411;28;20462;-60
2022/11/01 04:47:00;;;;;;;22.87;16.70;;;12.30;40.30;;;;;;5006239;28;20493;-61
2022/11/01 04:49:26;;;;;;;26.50;17.53;;;12.30;40.30;;;;;;5009185;28;20479;-61
2022/11/01 04:51:53;;;;;;;27.50;19.77;;;12.30;40.20;;;;;;5001555;28;21172;-60
2022/11/01 04:54:20;;;;;;;27.07;20.10;;;12.30;40.20;;;;;;5006912;28;20464;-60
2022/11/01 04:56:48;;;;;;;30.43;22.80;;;12.40;40.40;;;;;;5009037;28;20470;-61
2022/11/01 04:59:15;;;;;;;27.47;20.37;;;12.50;40.80;;;;;;5007254;28;20464;-61
2022/11/01 05:01:43;;;;;;;28.93;20.43;;;12.50;40.90;;;;;;5000155;28;20476;-61
2022/11/01 05:04:10;;;;;;;32.37;21.93;;;12.50;41.00;;;;;;5009399;28;20495;-60
2022/11/01 05:06:37;;;;;;;133.87;91.30;;;12.50;40.90;;;;;;5006257;28;20467;-61
2022/11/01 05:09:04;;;;;;;598.90;388.27;;;12.60;40.80;;;;;;5009874;28;20490;-65
2022/11/01 05:11:31;;;;;;;115.20;75.43;;;12.70;40.80;;;;;;5008929;28;20467;-67
2022/11/01 05:13:59;;;;;;;30.33;22.27;;;12.70;40.60;;;;;;5009511;28;20460;-70
2022/11/01 05:16:26;;;;;;;21.10;15.80;;;12.70;40.50;;;;;;4999120;28;20875;-65
2022/11/01 05:18:54;;;;;;;26.48;19.52;;;12.70;40.20;;;;;;5001332;28;20500;-63
2022/11/01 05:21:20;;;;;;;27.97;19.67;;;12.70;41.00;;;;;;4992968;28;20193;-64
2022/11/01 05:23:48;;;;;;;28.93;19.60;;;12.80;39.70;;;;;;4999020;28;20460;-64
2022/11/01 05:26:15;;;;;;;25.40;18.60;;;12.80;39.60;;;;;;4992539;28;20463;-65
2022/11/01 05:28:42;;;;;;;30.43;18.90;;;12.80;39.50;;;;;;5006186;28;20766;-64
2022/11/01 05:31:10;;;;;;;22.07;16.87;;;12.80;39.40;;;;;;4999860;28;20842;-66
2022/11/01 05:33:37;;;;;;;147.23;117.13;;;12.80;39.40;;;;;;4996688;28;20539;-68
2022/11/01 05:36:04;;;;;;;57.27;45.50;;;12.90;39.60;;;;;;4998666;28;20460;-61
2022/11/01 05:38:31;;;;;;;30.87;22.33;;;12.90;39.70;;;;;;5000313;28;20509;-60
2022/11/01 05:40:58;;;;;;;30.20;20.30;;;12.90;39.60;;;;;;4996319;28;20457;-60
2022/11/01 05:43:25;;;;;;;30.03;21.63;;;12.90;39.80;;;;;;5000201;28;20456;-60
2022/11/01 05:45:51;;;;;;;29.30;21.47;;;12.90;39.80;;;;;;5000238;28;21052;-61
2022/11/01 05:48:20;;;;;;;34.93;22.77;;;12.80;39.80;;;;;;5002568;28;20726;-61
2022/11/01 05:50:47;;;;;;;29.30;21.87;;;12.90;39.90;;;;;;5001560;28;20506;-61
2022/11/01 05:53:14;;;;;;;30.70;22.53;;;12.90;40.50;;;;;;5000801;28;20495;-61
2022/11/01 05:55:41;;;;;;;39.03;24.33;;;12.90;40.40;;;;;;5001850;28;20464;-61
2022/11/01 05:58:08;;;;;;;36.17;23.10;;;12.90;40.50;;;;;;5002290;28;20516;-61
2022/11/01 06:00:36;;;;;;;32.80;24.00;;;13.00;40.70;;;;;;5002914;28;20559;-61
2022/11/01 06:03:04;;;;;;;30.70;23.07;;;13.00;40.90;;;;;;5006265;28;20557;-60
2022/11/01 06:05:32;;;;;;;32.77;25.03;;;13.00;40.90;;;;;;5000202;28;20754;-61
2022/11/01 06:08:01;;;;;;;38.10;26.37;;;13.00;40.90;;;;;;5002249;28;20507;-61
2022/11/01 06:10:28;;;;;;;33.93;25.47;;;13.00;40.90;;;;;;4999614;28;20488;-61
2022/11/01 06:12:55;;;;;;;37.80;24.33;;;13.00;40.80;;;;;;5000357;28;20475;-61
2022/11/01 06:15:22;;;;;;;39.60;26.80;;;13.00;40.80;;;;;;5001041;28;20660;-61
2022/11/01 06:17:48;;;;;;;175.13;130.43;;;13.10;41.00;;;;;;5001368;28;21038;-61
2022/11/01 06:20:15;;;;;;;40.70;32.07;;;13.10;41.20;;;;;;5002592;28;20475;-61
2022/11/01 06:22:43;;;;;;;40.77;26.57;;;13.10;41.40;;;;;;4998130;28;21048;-61
2022/11/01 06:25:11;;;;;;;33.90;24.50;;;13.20;41.10;;;;;;5000527;28;20538;-62
2022/11/01 06:27:37;;;;;;;34.57;25.93;;;13.20;41.00;;;;;;5005309;28;20907;-61
2022/11/01 06:30:05;;;;;;;35.00;26.97;;;13.10;41.00;;;;;;5006282;28;20843;-61
2022/11/01 06:32:32;;;;;;;35.60;25.83;;;13.20;41.20;;;;;;4996529;28;20480;-61
2022/11/01 06:34:59;;;;;;;38.80;26.40;;;13.20;41.10;;;;;;4997606;28;20470;-61
2022/11/01 06:37:26;;;;;;;40.43;24.63;;;13.20;41.10;;;;;;5001135;28;20570;-61
2022/11/01 06:39:54;;;;;;;30.80;21.90;;;13.30;41.40;;;;;;4998331;28;20460;-61
2022/11/01 06:42:21;;;;;;;32.93;23.30;;;13.30;41.00;;;;;;4998299;28;20538;-61
2022/11/01 06:44:47;;;;;;;34.70;24.43;;;13.30;41.10;;;;;;5003890;28;20456;-61
2022/11/01 06:47:14;;;;;;;36.30;23.50;;;13.30;41.20;;;;;;5000356;28;20483;-61
2022/11/01 06:49:41;;;;;;;37.20;24.27;;;13.30;41.20;;;;;;4999853;28;20951;-61
2022/11/01 06:52:08;;;;;;;39.27;25.77;;;13.30;41.30;;;;;;5005621;28;20547;-61
2022/11/01 06:54:36;;;;;;;36.20;24.93;;;13.40;41.70;;;;;;5001577;28;20463;-61
2022/11/01 06:57:04;;;;;;;36.10;23.00;;;13.40;41.70;;;;;;5000996;28;20511;-61
2022/11/01 06:59:31;;;;;;;32.47;24.03;;;13.50;41.70;;;;;;5001891;28;20962;-61
2022/11/01 07:01:57;;;;;;;30.70;22.90;;;13.40;41.70;;;;;;5002520;28;20472;-60
2022/11/01 07:04:26;;;;;;;32.63;23.17;;;13.40;41.80;;;;;;5001444;28;20471;-61
2022/11/01 07:06:53;;;;;;;33.30;24.70;;;13.50;41.90;;;;;;4997244;28;20478;-61
2022/11/01 07:09:20;;;;;;;40.33;24.07;;;13.50;41.70;;;;;;5005272;28;20479;-61
2022/11/01 07:11:47;;;;;;;35.40;23.63;;;13.60;41.60;;;;;;4999922;28;20472;-61
2022/11/01 07:14:15;;;;;;;28.50;21.00;;;13.70;41.60;;;;;;5001176;28;20896;-61
2022/11/01 07:16:42;;;;;;;32.43;23.07;;;13.80;41.20;;;;;;4995842;28;20480;-61
2022/11/01 07:19:08;;;;;;;26.20;18.70;;;13.90;41.10;;;;;;5003245;28;20479;-61
2022/11/01 07:21:35;;;;;;;30.60;20.70;;;14.00;40.50;;;;;;5005672;28;20818;-61
2022/11/01 07:24:02;;;;;;;28.20;19.77;;;14.20;40.20;;;;;;4999844;28;20550;-60
2022/11/01 07:26:29;;;;;;;27.13;17.73;;;14.30;39.70;;;;;;5001477;28;20460;-60
2022/11/01 07:28:56;;;;;;;26.70;18.23;;;14.50;39.40;;;;;;5000640;28;20577;-60
2022/11/01 07:31:24;;;;;;;22.50;16.03;;;14.70;38.90;;;;;;5001074;28;20480;-60
2022/11/01 07:33:51;;;;;;;23.90;16.97;;;14.90;38.70;;;;;;5005743;28;20468;-61
2022/11/01 07:36:18;;;;;;;25.30;16.37;;;15.10;37.90;;;;;;4992399;28;20804;-61
2022/11/01 07:38:44;;;;;;;22.30;14.50;;;15.30;37.10;;;;;;4992646;28;20489;-61
2022/11/01 07:41:11;;;;;;;25.23;16.33;;;15.50;36.40;;;;;;5002548;28;20495;-61
2022/11/01 07:43:38;;;;;;;26.33;15.40;;;15.70;35.80;;;;;;5001494;28;20470;-61
2022/11/01 07:46:06;;;;;;;19.87;14.27;;;15.90;35.40;;;;;;5001430;28;20857;-61
2022/11/01 07:48:35;;;;;;;17.30;12.30;;;16.00;34.60;;;;;;4999530;28;20491;-60
2022/11/01 07:51:04;;;;;;;19.43;12.70;;;16.10;34.10;;;;;;5003675;28;20488;-61
2022/11/01 07:53:31;;;;;;;19.17;11.57;;;16.20;33.80;;;;;;5006332;28;20455;-61
2022/11/01 07:56:00;;;;;;;19.33;11.47;;;16.20;33.50;;;;;;4998076;28;20470;-60
2022/11/01 07:58:27;;;;;;;15.40;10.43;;;16.20;34.00;;;;;;5003318;28;20486;-60
2022/11/01 08:00:54;;;;;;;15.27;9.80;;;16.20;33.60;;;;;;5000302;28;20490;-60
2022/11/01 08:03:20;;;;;;;18.00;9.80;;;16.20;33.70;;;;;;5003830;28;20460;-60
2022/11/01 08:05:49;;;;;;;16.53;11.53;;;16.10;34.00;;;;;;5003571;28;20460;-60
2022/11/01 08:08:16;;;;;;;23.00;10.33;;;16.00;34.00;;;;;;5004253;28;20476;-60
2022/11/01 08:10:43;;;;;;;13.40;8.90;;;16.10;34.10;;;;;;5002708;28;20476;-61
2022/11/01 08:13:15;;;;;;;18.03;10.00;;;16.00;34.00;;;;;;5004925;28;20460;-61
2022/11/01 08:15:41;;;;;;;16.30;9.10;;;16.00;34.20;;;;;;5005565;28;20464;-61
2022/11/01 08:18:08;;;;;;;16.93;9.70;;;16.00;34.20;;;;;;5010333;28;20491;-61
2022/11/01 08:20:35;;;;;;;15.53;9.20;;;16.10;34.90;;;;;;5010483;28;20820;-61
2022/11/01 08:23:03;;;;;;;14.90;8.70;;;16.10;34.20;;;;;;5008900;28;20462;-61
2022/11/01 08:25:31;;;;;;;16.67;10.30;;;16.20;34.10;;;;;;5006482;28;20461;-62
2022/11/01 08:28:02;;;;;;;14.67;8.27;;;16.30;34.10;;;;;;5008863;28;20494;-61
2022/11/01 08:30:29;;;;;;;16.87;7.80;;;16.50;33.30;;;;;;5001299;28;20997;-61
2022/11/01 08:32:58;;;;;;;11.40;6.73;;;16.70;32.50;;;;;;5009511;28;20460;-61
2022/11/01 08:35:25;;;;;;;14.00;7.83;;;16.80;32.20;;;;;;5008899;28;20456;-61
2022/11/01 08:37:53;;;;;;;10.07;5.77;;;16.80;31.70;;;;;;5007435;28;20479;-61
2022/11/01 08:40:22;;;;;;;14.40;7.27;;;16.90;31.40;;;;;;5007128;28;20482;-61
2022/11/01 08:42:48;;;;;;;14.27;7.20;;;16.90;31.20;;;;;;5004524;28;20466;-62
2022/11/01 08:45:15;;;;;;;11.73;6.97;;;17.00;31.00;;;;;;5007512;28;20471;-61
2022/11/01 08:47:42;;;;;;;13.03;6.03;;;17.10;31.00;;;;;;5005164;28;20849;-61
2022/11/01 08:50:12;;;;;;;10.23;5.50;;;17.30;30.50;;;;;;5006921;28;20500;-61
2022/11/01 08:52:39;;;;;;;9.07;6.10;;;17.40;30.30;;;;;;5007692;28;20468;-61
2022/11/01 08:55:07;;;;;;;11.17;5.97;;;17.50;30.10;;;;;;5009774;28;20464;-61
2022/11/01 08:57:35;;;;;;;9.47;6.00;;;17.60;29.70;;;;;;5006413;28;20484;-61
2022/11/01 09:00:02;;;;;;;10.97;5.77;;;17.60;29.50;;;;;;5007256;28;20460;-61
2022/11/01 09:02:29;;;;;;;9.47;5.87;;;17.80;29.50;;;;;;5008759;28;21026;-61
2022/11/01 09:04:55;;;;;;;9.20;5.47;;;18.00;29.10;;;;;;5003965;28;20456;-62
2022/11/01 09:07:22;;;;;;;9.27;5.30;;;18.10;27.90;;;;;;5007205;28;20472;-62
2022/11/01 09:09:49;;;;;;;8.90;5.10;;;18.20;26.90;;;;;;5009793;28;20464;-62
2022/11/01 09:12:16;;;;;;;11.10;6.00;;;18.20;26.80;;;;;;5005184;28;20480;-62
2022/11/01 09:14:44;;;;;;;9.43;5.67;;;18.20;26.80;;;;;;5010769;28;20455;-62
2022/11/01 09:17:10;;;;;;;12.13;7.80;;;18.20;27.10;;;;;;5004182;28;20849;-62
2022/11/01 09:19:37;;;;;;;12.00;6.20;;;18.20;27.40;;;;;;5009814;28;20460;-62
2022/11/01 09:22:04;;;;;;;10.23;5.97;;;18.20;27.70;;;;;;5006442;28;20454;-61
2022/11/01 09:24:31;;;;;;;13.60;6.97;;;18.20;27.50;;;;;;5010438;28;20456;-62
2022/11/01 09:26:57;;;;;;;10.47;6.30;;;18.20;27.50;;;;;;5001794;28;20460;-62
2022/11/01 09:29:24;;;;;;;9.37;5.97;;;18.20;27.10;;;;;;5007474;28;21034;-61
2022/11/01 09:31:53;;;;;;;11.30;6.13;;;18.20;27.10;;;;;;5003224;28;21014;-61
2022/11/01 09:34:20;;;;;;;12.17;6.67;;;18.20;27.50;;;;;;5009191;28;20826;-61
2022/11/01 09:36:47;;;;;;;12.20;6.70;;;18.20;27.40;;;;;;5003095;28;20464;-61
2022/11/01 09:39:16;;;;;;;11.67;6.20;;;18.10;27.40;;;;;;5008682;28;20460;-61
2022/11/01 09:41:46;;;;;;;10.97;5.90;;;18.20;27.10;;;;;;5007036;28;20456;-61
2022/11/01 09:44:16;;;;;;;9.87;5.93;;;18.20;27.30;;;;;;5010232;28;20460;-61
2022/11/01 09:46:47;;;;;;;10.90;5.70;;;18.20;27.00;;;;;;5003188;28;20460;-61
2022/11/01 09:49:21;;;;;;;9.53;5.37;;;18.30;26.80;;;;;;5005346;28;20460;-61
2022/11/01 09:51:48;;;;;;;11.53;7.40;;;18.40;27.00;;;;;;5001572;28;20483;-61
2022/11/01 09:54:23;;;;;;;8.70;5.63;;;18.50;26.50;;;;;;5008846;28;20602;-61
2022/11/01 09:57:05;;;;;;;12.33;5.50;;;18.60;26.20;;;;;;5005747;28;20459;-61
2022/11/01 09:59:37;;;;;;;9.13;5.50;;;18.70;25.90;;;;;;5004168;28;20561;-61
2022/11/01 10:02:37;;;;;;;9.23;5.43;;;18.70;25.90;;;;;;5005137;28;20484;-62
2022/11/01 10:05:20;;;;;;;10.50;5.00;;;18.70;25.70;;;;;;5006746;28;20520;-62
2022/11/01 10:08:00;;;;;;;10.40;5.67;;;18.60;26.30;;;;;;5007500;28;20501;-62
2022/11/01 10:10:36;;;;;;;7.47;3.93;;;18.60;25.50;;;;;;5006905;28;20455;-61
2022/11/01 10:13:20;;;;;;;7.97;4.13;;;18.50;24.60;;;;;;5007618;28;20980;-62
2022/11/01 10:15:56;;;;;;;9.60;4.73;;;18.40;24.60;;;;;;5001645;28;21145;-61
2022/11/01 10:18:28;;;;;;;6.20;3.47;;;18.40;25.20;;;;;;5008373;28;20479;-61
2022/11/01 10:20:58;;;;;;;8.07;4.07;;;18.40;25.70;;;;;;5004682;28;20503;-61
2022/11/01 10:23:37;;;;;;;8.70;3.90;;;18.40;25.50;;;;;;5005327;28;20456;-62
2022/11/01 10:26:05;;;;;;;7.83;3.70;;;18.40;25.80;;;;;;5003939;28;20459;-62
2022/11/01 10:28:41;;;;;;;7.87;3.70;;;18.50;25.80;;;;;;5004612;28;20479;-61
2022/11/01 10:31:15;;;;;;;8.00;3.83;;;18.60;25.40;;;;;;5001881;28;20484;-62
2022/11/01 10:33:47;;;;;;;8.87;4.07;;;18.70;24.80;;;;;;5003893;28;20983;-62
2022/11/01 10:36:19;;;;;;;8.73;4.03;;;18.70;24.00;;;;;;5004184;28;20468;-62
2022/11/01 10:38:47;;;;;;;6.50;3.50;;;18.90;24.20;;;;;;5000949;28;20491;-63
2022/11/01 10:41:25;;;;;;;6.30;3.83;;;19.10;23.40;;;;;;5004558;28;20493;-62
2022/11/01 10:43:55;;;;;;;8.17;4.03;;;19.30;23.00;;;;;;5003032;28;20452;-62
2022/11/01 10:46:26;;;;;;;12.37;4.87;;;19.40;21.80;;;;;;5001779;28;20452;-62
2022/11/01 10:48:57;;;;;;;9.17;4.30;;;19.60;22.10;;;;;;5003053;28;20498;-62
2022/11/01 10:51:28;;;;;;;10.07;4.80;;;19.80;21.70;;;;;;5006868;28;20487;-62
2022/11/01 10:53:59;;;;;;;8.27;4.50;;;19.90;21.20;;;;;;4998064;28;20649;-62
2022/11/01 10:56:32;;;;;;;9.90;5.47;;;20.00;21.00;;;;;;5008674;28;20455;-62
2022/11/01 10:59:02;;;;;;;8.33;3.77;;;20.20;20.00;;;;;;5003067;28;21034;-62
2022/11/01 11:01:33;;;;;;;8.37;4.40;;;20.20;19.40;;;;;;5005475;28;20469;-62
2022/11/01 11:04:03;;;;;;;7.17;4.10;;;20.10;19.30;;;;;;5007215;28;20451;-62
2022/11/01 11:06:32;;;;;;;6.43;4.03;;;20.10;20.10;;;;;;5005677;28;20462;-62
2022/11/01 11:09:00;;;;;;;7.70;3.90;;;20.20;19.70;;;;;;4999945;28;20480;-62
2022/11/01 11:11:34;;;;;;;9.57;4.20;;;20.30;19.60;;;;;;5003226;28;20479;-61
2022/11/01 11:14:04;;;;;;;9.17;4.30;;;20.30;19.30;;;;;;5003705;28;20841;-61
2022/11/01 11:16:36;;;;;;;7.10;4.70;;;20.30;19.30;;;;;;5001769;28;20461;-62
2022/11/01 11:19:15;;;;;;;10.23;5.63;;;20.30;19.00;;;;;;5003756;28;20487;-62
2022/11/01 11:21:46;;;;;;;7.80;4.20;;;20.20;19.10;;;;;;5005898;28;20448;-62
2022/11/01 11:24:18;;;;;;;6.93;4.67;;;20.20;19.90;;;;;;4999983;28;20515;-62
2022/11/01 11:26:47;;;;;;;11.33;5.07;;;20.30;19.40;;;;;;4998583;28;20467;-62
2022/11/01 11:29:28;;;;;;;8.23;4.63;;;20.20;19.30;;;;;;5005684;28;20468;-62
2022/11/01 11:31:57;;;;;;;6.73;4.00;;;20.30;19.70;;;;;;5000345;28;20512;-62
2022/11/01 11:34:28;;;;;;;5.97;3.60;;;20.30;19.70;;;;;;5003118;28;20521;-63
2022/11/01 11:36:57;;;;;;;7.10;3.90;;;20.30;19.40;;;;;;5007130;28;20455;-63
2022/11/01 11:39:25;;;;;;;7.07;3.80;;;20.20;19.50;;;;;;4993845;28;20972;-62
2022/11/01 11:41:52;;;;;;;8.60;4.50;;;20.30;19.70;;;;;;4997275;28;20457;-62
2022/11/01 11:44:50;;;;;;;10.10;4.93;;;20.30;19.30;;;;;;5001962;28;20468;-61
2022/11/01 11:47:23;;;;;;;9.23;3.40;;;20.20;19.00;;;;;;4962497;28;20500;-63
2022/11/01 11:49:52;;;;;;;9.43;3.93;;;20.20;18.90;;;;;;4995018;28;20459;-62
2022/11/01 11:52:23;;;;;;;45.00;37.73;;;20.20;19.30;;;;;;5007502;28;20662;-69
2022/11/01 11:54:50;;;;;;;16.70;10.77;;;20.20;19.10;;;;;;5002594;28;20967;-64
2022/11/01 11:57:19;;;;;;;87.83;71.10;;;20.20;19.40;;;;;;5005318;28;20484;-67
2022/11/01 11:59:52;;;;;;;13.53;5.83;;;20.10;19.20;;;;;;5006327;28;20470;-66
2022/11/01 12:02:23;;;;;;;10.20;4.03;;;20.10;19.60;;;;;;5004479;28;20479;-64
2022/11/01 12:04:55;;;;;;;10.10;4.67;;;20.10;19.60;;;;;;5001128;28;20455;-64
2022/11/01 12:07:27;;;;;;;7.67;3.80;;;20.10;19.50;;;;;;5003373;28;20494;-65
2022/11/01 12:09:55;;;;;;;6.90;3.90;;;20.00;19.30;;;;;;5000342;28;20455;-65
2022/11/01 12:12:25;;;;;;;9.00;4.13;;;20.00;19.20;;;;;;5001780;28;20526;-66
2022/11/01 12:14:52;;;;;;;84.07;59.80;;;20.00;19.50;;;;;;5001970;28;20464;-63
2022/11/01 12:17:31;;;;;;;57.27;51.13;;;19.90;19.90;;;;;;5003148;28;21044;-64
2022/11/01 12:20:18;;;;;;;7.33;4.67;;;19.90;19.90;;;;;;5002632;28;20470;-64
2022/11/01 12:22:50;;;;;;;6.80;3.70;;;19.90;20.00;;;;;;4998747;28;20461;-64
2022/11/01 12:25:21;;;;;;;8.50;3.10;;;19.90;20.00;;;;;;5001897;28;20492;-64
2022/11/01 12:27:59;;;;;;;6.80;3.67;;;19.80;20.10;;;;;;4997421;28;21011;-64
2022/11/01 12:30:30;;;;;;;8.57;3.80;;;19.80;20.30;;;;;;4995405;28;20852;-64
2022/11/01 12:32:58;;;;;;;7.47;4.23;;;19.80;20.10;;;;;;4999489;28;20511;-65
2022/11/01 12:35:29;;;;;;;8.30;4.10;;;19.70;19.80;;;;;;4998080;28;20496;-64
2022/11/01 12:38:33;;;;;;;6.63;3.93;;;19.60;20.10;;;;;;5003956;28;20606;-64
2022/11/01 12:41:12;;;;;;;7.53;3.27;;;19.60;20.70;;;;;;4999719;28;20466;-65
2022/11/01 12:43:56;;;;;;;7.00;3.90;;;19.50;20.60;;;;;;5002733;28;20845;-64
2022/11/01 12:46:31;;;;;;;7.03;3.60;;;19.60;20.90;;;;;;5001425;28;20464;-65
2022/11/01 12:49:03;;;;;;;7.83;3.90;;;19.60;21.00;;;;;;4999566;28;20854;-65
2022/11/01 12:51:36;;;;;;;6.90;3.90;;;19.60;21.10;;;;;;4996199;28;20488;-65
2022/11/01 12:54:12;;;;;;;9.57;3.77;;;19.60;20.80;;;;;;5000464;28;20464;-64
2022/11/01 12:56:39;;;;;;;10.43;3.23;;;19.50;20.30;;;;;;5005765;28;21754;-65